| time (UTC) | temp F | wind direction | speed MPH | gust MPH | rain 1hr in | rain 24hr in | rain mn in | humidity % | barometer mb |
| 20260906092430 | 73 | 56 | 1.0 | 1.0 | 0.02 | 0.19 | 0.19 | 99 | 983.7 |
| 20260906091424 | 73 | 95 | 2.0 | 2.0 | 0.02 | 0.19 | 0.19 | 99 | 983.1 |
| 20260906090418 | 73 | 290 | 0.0 | 0.0 | 0.00 | 0.19 | 0.19 | 99 | 983.1 |
| 20260906085412 | 73 | 75 | 0.0 | 2.0 | 0.02 | 0.19 | 0.19 | 99 | 983.1 |
| 20260906084406 | 73 | 269 | 0.0 | 0.0 | 0.02 | 0.18 | 0.18 | 99 | 983.1 |
| 20260906083400 | 73 | 105 | 1.0 | 2.0 | 0.05 | 0.18 | 0.18 | 99 | 983.1 |
| 20260906082354 | 73 | 75 | 0.0 | 0.0 | 0.00 | 0.17 | 0.17 | 99 | 983.1 |
| 20260906081348 | 74 | 198 | 0.0 | 1.0 | 0.02 | 0.17 | 0.17 | 99 | 983.1 |
| 20260906080342 | 74 | 201 | 2.0 | 2.0 | 0.07 | 0.16 | 0.16 | 99 | 983.1 |
| 20260906075336 | 74 | 224 | 0.0 | 1.0 | 0.14 | 0.15 | 0.15 | 99 | 983.4 |
| 20260906074330 | 75 | 139 | 2.0 | 4.0 | 0.28 | 0.13 | 0.13 | 99 | 983.4 |
| 20260906073324 | 76 | 154 | 2.0 | 5.0 | 0.26 | 0.08 | 0.08 | 99 | 983.7 |
| 20260906072318 | 77 | 95 | 2.0 | 2.0 | 0.02 | 0.04 | 0.04 | 99 | 983.7 |
| 20260906071312 | 77 | 295 | 0.0 | 1.0 | 0.02 | 0.03 | 0.03 | 99 | 983.4 |
| 20260906070306 | 77 | 247 | 1.0 | 2.0 | 0.02 | 0.03 | 0.03 | 99 | 983.4 |
| 20260906065300 | 76 | 315 | 1.0 | 1.0 | 0.00 | 0.02 | 0.02 | 99 | 983.4 |
| 20260906064254 | 76 | 180 | 0.0 | 0.0 | 0.02 | 0.02 | 0.02 | 99 | 982.7 |
| 20260906063248 | 76 | 222 | 1.0 | 2.0 | 0.00 | 0.02 | 0.02 | 99 | 982.7 |
| 20260906062242 | 75 | 224 | 0.0 | 0.0 | 0.02 | 0.02 | 0.02 | 99 | 983.1 |
| 20260906061236 | 75 | 230 | 0.0 | 0.0 | 0.00 | 0.02 | 0.02 | 99 | 983.1 |
| 20260906060230 | 75 | 180 | 0.0 | 0.0 | 0.02 | 0.02 | 0.02 | 99 | 983.1 |
| 20260906055224 | 75 | 218 | 0.0 | 0.0 | 0.02 | 0.01 | 0.01 | 99 | 983.4 |
| 20260906054218 | 75 | 255 | 1.0 | 1.0 | 0.00 | 0.01 | 0.01 | 99 | 983.4 |
| 20260906053212 | 75 | 163 | 0.0 | 1.0 | 0.00 | 0.01 | 0.01 | 99 | 983.4 |
| 20260906052206 | 75 | 205 | 0.0 | 0.0 | 0.02 | 0.01 | 0.01 | 99 | 983.4 |
| 20260906051158 | 75 | 203 | 1.0 | 1.0 | 0.02 | 0.00 | 0.00 | 99 | 983.7 |
| 20260906050152 | 74 | 269 | 0.0 | 0.0 | 0.00 | 0.00 | 0.00 | 99 | 984.1 |
| 20260906045146 | 74 | 255 | 0.0 | 0.0 | 0.02 | 0.33 | 0.33 | 98 | 983.7 |
| 20260906044140 | 74 | 288 | 0.0 | 0.0 | 0.00 | 0.33 | 0.33 | 97 | 983.7 |
| 20260906043134 | 74 | 284 | 0.0 | 0.0 | 0.02 | 0.33 | 0.33 | 97 | 983.7 |
| 20260906042128 | 75 | 179 | 0.0 | 0.0 | 0.00 | 0.32 | 0.32 | 96 | 983.7 |
| 20260906041122 | 75 | 115 | 2.0 | 2.0 | 0.05 | 0.32 | 0.32 | 93 | 983.7 |
| 20260906040116 | 77 | 269 | 2.0 | 2.0 | 1.18 | 0.31 | 0.31 | 87 | 983.7 |
| 20260906035110 | 81 | 275 | 4.0 | 5.0 | 0.47 | 0.11 | 0.11 | 88 | 984.8 |
| 20260906034104 | 80 | 291 | 0.0 | 2.0 | 0.00 | 0.04 | 0.04 | 86 | 984.4 |
| 20260906033058 | 80 | 317 | 0.0 | 2.0 | 0.00 | 0.04 | 0.04 | 87 | 984.1 |
| 20260906032052 | 80 | 255 | 0.0 | 0.0 | 0.00 | 0.04 | 0.04 | 86 | 983.7 |
| 20260906031046 | 80 | 288 | 1.0 | 2.0 | 0.00 | 0.04 | 0.04 | 86 | 983.7 |
| 20260906030040 | 80 | 222 | 0.0 | 1.0 | 0.00 | 0.04 | 0.04 | 86 | 983.4 |
| 20260906025034 | 81 | 251 | 0.0 | 1.0 | 0.00 | 0.04 | 0.04 | 85 | 983.4 |
| 20260906024028 | 81 | 269 | 0.0 | 0.0 | 0.00 | 0.04 | 0.04 | 84 | 983.4 |
| 20260906023022 | 81 | 141 | 0.0 | 1.0 | 0.00 | 0.04 | 0.04 | 83 | 983.4 |
| 20260906022016 | 82 | 283 | 1.0 | 1.0 | 0.00 | 0.04 | 0.04 | 82 | 983.1 |
| 20260906021010 | 82 | 224 | 0.0 | 0.0 | 0.00 | 0.04 | 0.04 | 80 | 983.4 |
| 20260906020004 | 82 | 252 | 2.0 | 2.0 | 0.00 | 0.04 | 0.04 | 80 | 983.4 |
| 20260906014958 | 83 | 253 | 0.0 | 1.0 | 0.00 | 0.04 | 0.04 | 79 | 983.1 |
| 20260906013952 | 83 | 178 | 0.0 | 0.0 | 0.00 | 0.04 | 0.04 | 77 | 983.1 |
| 20260906012946 | 83 | 193 | 0.0 | 0.0 | 0.00 | 0.04 | 0.04 | 77 | 982.4 |
| 20260906011940 | 84 | 267 | 1.0 | 2.0 | 0.00 | 0.04 | 0.04 | 75 | 982.4 |
| 20260906010934 | 84 | 282 | 0.0 | 0.0 | 0.00 | 0.04 | 0.04 | 77 | 982.1 |
| 20260906005928 | 84 | 236 | 0.0 | 2.0 | 0.00 | 0.04 | 0.04 | 75 | 982.1 |
| 20260906004922 | 85 | 224 | 0.0 | 0.0 | 0.00 | 0.04 | 0.04 | 74 | 981.7 |
| 20260906003916 | 86 | 224 | 0.0 | 1.0 | 0.00 | 0.04 | 0.04 | 72 | 981.7 |
| 20260906002908 | 86 | 280 | 1.0 | 2.0 | 0.00 | 0.04 | 0.04 | 69 | 982.1 |
| 20260906001902 | 86 | 251 | 1.0 | 2.0 | 0.00 | 0.04 | 0.04 | 67 | 982.1 |
| 20260906000856 | 87 | 195 | 0.0 | 0.0 | 0.00 | 0.04 | 0.04 | 66 | 982.1 |
| 20260905235849 | 87 | 224 | 0.0 | 0.0 | 0.00 | 0.04 | 0.04 | 63 | 982.1 |
| 20260905234843 | 88 | 218 | 0.0 | 0.0 | 0.00 | 0.04 | 0.04 | 61 | 982.1 |
| 20260905233837 | 88 | 230 | 0.0 | 1.0 | 0.00 | 0.04 | 0.04 | 59 | 982.1 |
| 20260905232831 | 89 | 263 | 2.0 | 2.0 | 0.00 | 0.04 | 0.04 | 58 | 982.1 |
| 20260905231825 | 89 | 266 | 1.0 | 2.0 | 0.00 | 0.04 | 0.04 | 56 | 982.1 |
| 20260905230819 | 89 | 260 | 0.0 | 1.0 | 0.00 | 0.04 | 0.04 | 56 | 982.1 |
| 20260905225813 | 89 | 269 | 0.0 | 0.0 | 0.00 | 0.04 | 0.04 | 54 | 982.1 |
| 20260905224807 | 90 | 180 | 0.0 | 0.0 | 0.00 | 0.04 | 0.04 | 53 | 982.1 |
| 20260905223801 | 91 | 265 | 0.0 | 1.0 | 0.00 | 0.04 | 0.04 | 49 | 981.7 |
| 20260905222755 | 93 | 249 | 3.0 | 3.0 | 0.00 | 0.04 | 0.04 | 48 | 981.7 |
| 20260905221749 | 94 | 260 | 1.0 | 2.0 | 0.00 | 0.04 | 0.04 | 47 | 981.7 |
| 20260905220743 | 96 | 272 | 2.0 | 2.0 | 0.00 | 0.04 | 0.04 | 46 | 982.1 |
| 20260905215737 | 96 | 277 | 2.0 | 3.0 | 0.00 | 0.04 | 0.04 | 43 | 981.7 |
| 20260905214731 | 98 | 247 | 1.0 | 2.0 | 0.00 | 0.04 | 0.04 | 43 | 981.7 |
| 20260905213725 | 97 | 269 | 1.0 | 2.0 | 0.00 | 0.04 | 0.04 | 45 | 981.7 |
| 20260905212718 | 96 | 279 | 1.0 | 2.0 | 0.00 | 0.04 | 0.04 | 46 | 981.7 |
| 20260905211711 | 96 | 275 | 2.0 | 2.0 | 0.00 | 0.04 | 0.04 | 44 | 982.1 |
| 20260905210706 | 97 | 296 | 2.0 | 2.0 | 0.00 | 0.04 | 0.04 | 43 | 981.7 |
| 20260905205659 | 98 | 287 | 2.0 | 3.0 | 0.00 | 0.04 | 0.04 | 40 | 982.1 |
| 20260905204653 | 99 | 222 | 1.0 | 2.0 | 0.00 | 0.04 | 0.04 | 40 | 982.1 |
| 20260905203647 | 99 | 289 | 3.0 | 4.0 | 0.00 | 0.04 | 0.04 | 39 | 982.1 |
| 20260905202641 | 98 | 287 | 3.0 | 3.0 | 0.00 | 0.04 | 0.04 | 40 | 982.1 |
| 20260905201635 | 99 | 285 | 4.0 | 4.0 | 0.00 | 0.04 | 0.04 | 37 | 982.1 |
| 20260905200628 | 99 | 258 | 2.0 | 2.0 | 0.00 | 0.04 | 0.04 | 39 | 982.1 |
| 20260905195622 | 99 | 243 | 0.0 | 24.0 | 0.00 | 0.04 | 0.04 | 40 | 982.4 |
| 20260905194616 | 98 | 127 | 2.0 | 18.0 | 0.00 | 0.04 | 0.04 | 42 | 982.4 |
| 20260905193610 | 97 | 220 | 1.0 | 23.0 | 0.00 | 0.04 | 0.04 | 43 | 982.7 |
| 20260905192604 | 97 | 234 | 0.0 | 20.0 | 0.00 | 0.04 | 0.04 | 43 | 982.7 |
| 20260905191557 | 98 | 291 | 2.0 | 2.0 | 0.00 | 0.04 | 0.04 | 42 | 983.1 |
| 20260905190551 | 97 | 179 | 0.0 | 22.0 | 0.00 | 0.04 | 0.04 | 42 | 983.1 |
| 20260905185545 | 97 | 252 | 3.0 | 21.0 | 0.00 | 0.04 | 0.04 | 45 | 983.4 |
| 20260905184539 | 96 | 248 | 2.0 | 22.0 | 0.00 | 0.04 | 0.04 | 46 | 983.4 |
| 20260905183533 | 96 | 257 | 2.0 | 2.0 | 0.00 | 0.04 | 0.04 | 46 | 983.7 |
| 20260905182527 | 96 | 233 | 6.0 | 6.0 | 0.00 | 0.04 | 0.04 | 45 | 983.7 |
| 20260905181521 | 95 | 222 | 2.0 | 3.0 | 0.00 | 0.04 | 0.04 | 46 | 984.1 |
| 20260905180515 | 95 | 264 | 3.0 | 3.0 | 0.00 | 0.04 | 0.04 | 46 | 984.1 |
| 20260905175509 | 95 | 260 | 2.0 | 2.0 | 0.00 | 0.04 | 0.04 | 47 | 984.4 |
| 20260905174503 | 94 | 249 | 2.0 | 3.0 | 0.00 | 0.04 | 0.04 | 52 | 984.4 |
| 20260905173457 | 93 | 262 | 2.0 | 2.0 | 0.00 | 0.04 | 0.04 | 52 | 984.4 |
| 20260905172451 | 94 | 233 | 2.0 | 2.0 | 0.00 | 0.04 | 0.04 | 49 | 984.8 |
| 20260905171445 | 93 | 297 | 2.0 | 3.0 | 0.00 | 0.04 | 0.04 | 52 | 984.8 |
| 20260905170439 | 92 | 239 | 1.0 | 2.0 | 0.00 | 0.04 | 0.04 | 54 | 984.8 |
| 20260905165434 | 94 | 267 | 0.0 | 0.0 | 0.00 | 0.04 | 0.04 | 51 | 985.1 |
| 20260905164427 | 95 | 264 | 2.0 | 3.0 | 0.00 | 0.04 | 0.04 | 50 | 985.1 |
| 20260905163421 | 94 | 283 | 2.0 | 3.0 | 0.00 | 0.04 | 0.04 | 50 | 985.1 |
| 20260905162415 | 94 | 274 | 2.0 | 3.0 | 0.00 | 0.04 | 0.04 | 52 | 985.1 |
| 20260905161409 | 94 | 317 | 0.0 | 2.0 | 0.00 | 0.04 | 0.04 | 53 | 985.4 |
| 20260905160403 | 93 | 330 | 3.0 | 3.0 | 0.00 | 0.04 | 0.04 | 54 | 985.4 |
| 20260905155357 | 93 | 244 | 3.0 | 5.0 | 0.00 | 0.04 | 0.04 | 53 | 985.4 |
| 20260905154351 | 92 | 285 | 3.0 | 5.0 | 0.00 | 0.04 | 0.04 | 54 | 985.1 |
| 20260905153345 | 92 | 337 | 2.0 | 2.0 | 0.00 | 0.04 | 0.04 | 55 | 985.4 |
| 20260905152339 | 91 | 283 | 0.0 | 1.0 | 0.00 | 0.04 | 0.04 | 57 | 985.4 |
| 20260905151333 | 90 | 286 | 1.0 | 2.0 | 0.00 | 0.04 | 0.04 | 60 | 985.4 |
| 20260905150327 | 88 | 180 | 0.0 | 0.0 | 0.00 | 0.04 | 0.04 | 61 | 985.4 |
| 20260905145321 | 87 | 239 | 1.0 | 2.0 | 0.00 | 0.04 | 0.04 | 65 | 985.4 |
| 20260905144315 | 86 | 313 | 3.0 | 3.0 | 0.00 | 0.04 | 0.04 | 66 | 985.4 |
| 20260905143309 | 85 | 180 | 0.0 | 1.0 | 0.00 | 0.04 | 0.04 | 69 | 985.4 |
| 20260905142305 | 84 | 239 | 0.0 | 1.0 | 0.00 | 0.04 | 0.04 | 70 | 985.4 |
| 20260905141257 | 84 | 123 | 0.0 | 0.0 | 0.00 | 0.04 | 0.04 | 71 | 985.4 |
| 20260905140251 | 83 | 294 | 1.0 | 2.0 | 0.00 | 0.04 | 0.04 | 74 | 985.4 |
| 20260905135245 | 83 | 290 | 2.0 | 2.0 | 0.00 | 0.04 | 0.04 | 77 | 985.4 |
| 20260905134239 | 80 | 178 | 0.0 | 2.0 | 0.00 | 0.04 | 0.04 | 82 | 985.4 |
| 20260905133233 | 79 | 297 | 0.0 | 0.0 | 0.00 | 0.04 | 0.04 | 85 | 985.8 |
| 20260905132227 | 78 | 255 | 0.0 | 0.0 | 0.02 | 0.04 | 0.04 | 89 | 985.8 |
| 20260905131221 | 76 | 269 | 0.0 | 0.0 | 0.00 | 0.03 | 0.03 | 92 | 986.1 |
| 20260905130215 | 75 | 234 | 0.0 | 0.0 | 0.02 | 0.03 | 0.03 | 95 | 985.8 |
| 20260905125209 | 74 | 180 | 0.0 | 0.0 | 0.00 | 0.03 | 0.03 | 98 | 985.8 |
| 20260905124203 | 74 | 249 | 0.0 | 0.0 | 0.00 | 0.02 | 0.02 | 98 | 985.4 |
| 20260905123157 | 73 | 224 | 0.0 | 0.0 | 0.00 | 0.02 | 0.02 | 97 | 985.8 |
| 20260905122151 | 73 | 147 | 0.0 | 0.0 | 0.02 | 0.02 | 0.02 | 97 | 985.8 |
| 20260905121145 | 73 | 89 | 0.0 | 0.0 | 0.02 | 0.02 | 0.02 | 98 | 985.4 |
| 20260905120139 | 73 | 178 | 0.0 | 0.0 | 0.00 | 0.02 | 0.02 | 98 | 985.4 |
| 20260905115133 | 73 | 177 | 0.0 | 0.0 | 0.02 | 0.02 | 0.02 | 97 | 985.4 |
| 20260905114127 | 73 | 177 | 0.0 | 0.0 | 0.00 | 0.01 | 0.01 | 97 | 985.4 |
| 20260905113121 | 73 | 89 | 0.0 | 0.0 | 0.02 | 0.01 | 0.01 | 97 | 985.4 |
| 20260905112115 | 73 | 269 | 0.0 | 0.0 | 0.00 | 0.01 | 0.01 | 96 | 985.4 |
| 20260905111109 | 73 | 1 | 0.0 | 0.0 | 0.02 | 0.01 | 0.01 | 96 | 985.4 |
| 20260905105057 | 73 | 180 | 0.0 | 0.0 | 0.00 | 0.00 | 0.00 | 96 | 985.1 |
| 20260905104051 | 73 | 323 | 0.0 | 0.0 | 0.00 | 0.00 | 0.00 | 95 | 985.1 |
| 20260905103045 | 73 | 122 | 0.0 | 0.0 | 0.00 | 0.00 | 0.00 | 95 | 985.1 |
| 20260905102039 | 73 | 315 | 0.0 | 0.0 | 0.00 | 0.00 | 0.00 | 95 | 984.8 |
| 20260905101033 | 73 | 220 | 0.0 | 0.0 | 0.00 | 0.00 | 0.00 | 95 | 984.8 |
| 20260905100027 | 73 | 242 | 0.0 | 0.0 | 0.00 | 0.00 | 0.00 | 94 | 985.1 |
| 20260905095021 | 74 | 140 | 0.0 | 0.0 | 0.00 | 0.00 | 0.00 | 94 | 985.1 |
| 20260905094015 | 74 | 164 | 0.0 | 0.0 | 0.00 | 0.00 | 0.00 | 94 | 984.8 |
| 20260905093009 | 74 | 124 | 0.0 | 0.0 | 0.00 | 0.00 | 0.00 | 93 | 985.1 |